TimeAEST,TemperatureF,Dew PointF,Humidity,Sea Level PressureIn,VisibilityMPH,Wind Direction,Wind SpeedMPH,Gust SpeedMPH,PrecipitationIn,Events,Conditions,WindDirDegrees,DateUTC
12:00 AM,68,58,63,30.05,12,NE,11.5,,,,Haze,50,2013-09-13 14:00:00
12:00 AM,68.0,59.0,73,30.04,6.2,NE,11.5,-,N/A,,Partly Cloudy,50,2013-09-13 14:00:00
12:30 AM,68.0,59.0,73,30.04,6.2,ENE,6.9,-,N/A,,Partly Cloudy,60,2013-09-13 14:30:00
1:00 AM,67,59,68,30.05,,ENE,5.8,,,,,60,2013-09-13 15:00:00
1:00 AM,68.0,59.0,73,30.04,6.2,ENE,5.8,-,N/A,,Scattered Clouds,60,2013-09-13 15:00:00
1:30 AM,68.0,59.0,73,30.04,6.2,ENE,8.1,-,N/A,,Mostly Cloudy,60,2013-09-13 15:30:00
2:00 AM,68.0,59.0,73,30.01,6.2,NE,9.2,-,N/A,,Mostly Cloudy,40,2013-09-13 16:00:00
2:30 AM,68.0,59.0,73,30.01,6.2,NE,10.4,-,N/A,,Mostly Cloudy,40,2013-09-13 16:30:00
3:00 AM,68,59,67,30.00,12,NE,11.5,,,,Haze,40,2013-09-13 17:00:00
3:00 AM,68.0,59.0,73,29.98,6.2,NE,11.5,-,N/A,,Mostly Cloudy,40,2013-09-13 17:00:00
3:30 AM,68.0,60.8,78,29.98,6.2,NNE,11.5,-,N/A,,Mostly Cloudy,20,2013-09-13 17:30:00
4:00 AM,68,60,68,30.00,,NNE,13.8,,,,,30,2013-09-13 18:00:00
4:00 AM,68.0,59.0,73,29.98,6.2,NNE,13.8,-,N/A,,Mostly Cloudy,30,2013-09-13 18:00:00
4:30 AM,68.0,60.8,78,29.98,6.2,NNE,13.8,-,N/A,,Mostly Cloudy,30,2013-09-13 18:30:00
5:00 AM,68.0,60.8,78,30.01,6.2,NNE,12.7,-,N/A,,Scattered Clouds,30,2013-09-13 19:00:00
5:30 AM,68.0,62.6,83,30.01,6.2,NNE,13.8,-,N/A,,Mostly Cloudy,30,2013-09-13 19:30:00
6:00 AM,69,62,72,30.02,16,NNE,15.0,,,,Partly Cloudy,30,2013-09-13 20:00:00
6:00 AM,69.8,62.6,78,30.01,6.2,NNE,15.0,-,N/A,,Mostly Cloudy,30,2013-09-13 20:00:00
6:30 AM,69.8,62.6,78,30.01,6.2,North,17.3,-,N/A,,Mostly Cloudy,10,2013-09-13 20:30:00
7:00 AM,71,62,67,30.02,,NNE,15.0,,,,,20,2013-09-13 21:00:00
7:00 AM,69.8,62.6,78,30.01,6.2,NNE,15.0,-,N/A,,Mostly Cloudy,20,2013-09-13 21:00:00
7:30 AM,71.6,62.6,73,30.04,6.2,North,16.1,-,N/A,,Mostly Cloudy,10,2013-09-13 21:30:00
8:00 AM,71.6,64.4,78,30.04,6.2,North,15.0,-,N/A,,Mostly Cloudy,10,2013-09-13 22:00:00
8:30 AM,73.4,62.6,69,30.01,6.2,North,16.1,-,N/A,,Scattered Clouds,10,2013-09-13 22:30:00
9:00 AM,74,64,62,30.03,12,North,16.1,,,,Haze,10,2013-09-13 23:00:00
9:00 AM,73.4,64.4,73,30.01,6.2,North,16.1,-,N/A,,Scattered Clouds,10,2013-09-13 23:00:00
9:30 AM,71.6,62.6,73,30.01,6.2,North,17.3,-,N/A,,Mostly Cloudy,10,2013-09-13 23:30:00
10:00 AM,74,65,66,30.01,,North,19.6,,,,,10,2013-09-14 00:00:00
10:00 AM,75.2,64.4,69,30.01,6.2,North,19.6,-,N/A,,Mostly Cloudy,10,2013-09-14 00:00:00
10:30 AM,73.4,64.4,73,29.98,6.2,NNE,19.6,-,N/A,,Scattered Clouds,20,2013-09-14 00:30:00
11:00 AM,75.2,64.4,69,29.98,6.2,NNE,19.6,-,N/A,,Scattered Clouds,20,2013-09-14 01:00:00
11:30 AM,77.0,66.2,69,29.95,6.2,NNE,19.6,-,N/A,,Partly Cloudy,20,2013-09-14 01:30:00
12:00 PM,75,66,65,29.95,12,NNE,19.6,,,,Haze,20,2013-09-14 02:00:00
12:00 PM,75.2,66.2,73,29.95,6.2,NNE,19.6,-,N/A,,Partly Cloudy,20,2013-09-14 02:00:00
12:30 PM,75.2,66.2,73,29.92,6.2,NNE,21.9,-,N/A,,Partly Cloudy,20,2013-09-14 02:30:00
1:00 PM,76,66,64,29.91,,NNE,24.2,,,,,20,2013-09-14 03:00:00
1:00 PM,75.2,66.2,73,29.89,6.2,NNE,24.2,-,N/A,,Partly Cloudy,20,2013-09-14 03:00:00
1:30 PM,75.2,66.2,73,29.89,6.2,NNE,21.9,-,N/A,,Partly Cloudy,20,2013-09-14 03:30:00
2:00 PM,75.2,66.2,73,29.86,6.2,North,21.9,-,N/A,,Partly Cloudy,10,2013-09-14 04:00:00
2:30 PM,75.2,66.2,73,29.83,6.2,NNE,21.9,-,N/A,,Partly Cloudy,20,2013-09-14 04:30:00
3:00 PM,75,67,71,29.84,9,NNE,20.7,,,,Haze,20,2013-09-14 05:00:00
3:00 PM,75.2,68.0,78,29.83,6.2,NNE,20.7,-,N/A,,Partly Cloudy,20,2013-09-14 05:00:00
3:30 PM,73.4,68.0,83,29.80,6.2,NNE,23.0,-,N/A,,Partly Cloudy,20,2013-09-14 05:30:00
4:00 PM,74,67,74,29.83,,North,21.9,,,,,10,2013-09-14 06:00:00
4:00 PM,73.4,68.0,83,29.80,6.2,North,21.9,-,N/A,,Partly Cloudy,10,2013-09-14 06:00:00
4:30 PM,73.4,68.0,83,29.80,6.2,North,19.6,-,N/A,,Partly Cloudy,10,2013-09-14 06:30:00
5:00 PM,73.4,68.0,83,29.83,6.2,North,17.3,-,N/A,,Partly Cloudy,360,2013-09-14 07:00:00
5:30 PM,71.6,66.2,83,29.83,6.2,North,15.0,-,N/A,,Partly Cloudy,10,2013-09-14 07:30:00
6:00 PM,71,66,81,29.84,8,NNE,15.0,,,,Haze,20,2013-09-14 08:00:00
6:00 PM,71.6,66.2,83,29.83,6.2,NNE,15.0,-,N/A,,Partly Cloudy,20,2013-09-14 08:00:00
6:30 PM,71.6,66.2,83,29.83,6.2,North,10.4,-,N/A,,Partly Cloudy,10,2013-09-14 08:30:00
7:00 PM,71,66,78,29.86,,North,10.4,,,,,10,2013-09-14 09:00:00
7:00 PM,69.8,66.2,88,29.86,6.2,North,10.4,-,N/A,,Partly Cloudy,10,2013-09-14 09:00:00
7:30 PM,71.6,66.2,83,29.86,6.2,North,10.4,-,N/A,,Partly Cloudy,10,2013-09-14 09:30:00
8:00 PM,68.0,66.2,94,29.86,6.2,North,8.1,-,N/A,,Partly Cloudy,10,2013-09-14 10:00:00
8:30 PM,68.0,66.2,94,29.86,6.2,North,6.9,-,N/A,,Partly Cloudy,360,2013-09-14 10:30:00
9:00 PM,68,66,90,29.88,8,NNE,1.2,,,,Partly Cloudy,20,2013-09-14 11:00:00
9:00 PM,68.0,66.2,94,29.86,6.2,NNE,1.2,-,N/A,,Partly Cloudy,20,2013-09-14 11:00:00
9:30 PM,68.0,64.4,88,29.86,6.2,South,3.5,-,N/A,,Partly Cloudy,180,2013-09-14 11:30:00
10:00 PM,67,64,88,29.90,,SSW,3.5,,,,,210,2013-09-14 12:00:00
10:00 PM,66.2,64.4,94,29.89,6.2,SSW,3.5,-,N/A,,Partly Cloudy,210,2013-09-14 12:00:00
10:30 PM,66.2,64.4,94,29.89,6.2,SSW,5.8,-,N/A,,Partly Cloudy,200,2013-09-14 12:30:00
11:00 PM,66.2,64.4,94,29.89,6.2,SSW,4.6,-,N/A,,Partly Cloudy,210,2013-09-14 13:00:00
11:30 PM,64.4,62.6,94,29.89,6.2,SW,1.2,-,N/A,Fog,Shallow Fog,230,2013-09-14 13:30:00